createdAt,value
2018-06-05T00:00:29.024Z,13.67
2018-06-05T00:02:57.569Z,12.57
2018-06-05T00:05:26.154Z,14.97
2018-06-05T00:07:54.730Z,12.80
2018-06-05T00:10:23.295Z,11.60
2018-06-05T00:12:51.920Z,11.93
2018-06-05T00:15:20.483Z,11.90
2018-06-05T00:17:49.071Z,10.27
2018-06-05T00:20:17.262Z,10.30
2018-06-05T00:22:46.849Z,11.03
2018-06-05T00:25:15.222Z,10.57
2018-06-05T00:27:43.815Z,10.73
2018-06-05T00:30:12.595Z,11.17
2018-06-05T00:32:41.279Z,12.20
2018-06-05T00:35:09.911Z,9.60
2018-06-05T00:37:38.755Z,13.07
2018-06-05T00:40:07.355Z,10.10
2018-06-05T00:42:35.945Z,14.43
2018-06-05T00:45:05.569Z,17.97
2018-06-05T00:47:34.156Z,14.77
2018-06-05T00:50:02.702Z,12.67
2018-06-05T00:52:31.426Z,13.30
2018-06-05T00:54:59.992Z,14.10
2018-06-05T00:57:28.563Z,14.90
2018-06-05T00:59:57.164Z,19.03
2018-06-05T01:02:25.822Z,13.90
2018-06-05T01:04:54.389Z,13.53
2018-06-05T01:07:22.943Z,13.97
2018-06-05T01:09:52.575Z,14.13
2018-06-05T01:12:20.778Z,13.97
2018-06-05T01:14:49.449Z,13.33
2018-06-05T01:17:18.019Z,13.20
2018-06-05T01:19:46.292Z,12.40
2018-06-05T01:22:14.908Z,14.00
2018-06-05T01:24:44.507Z,13.00
2018-06-05T01:27:14.216Z,12.77
2018-06-05T01:29:42.918Z,15.30
2018-06-05T01:32:11.485Z,14.00
2018-06-05T01:34:40.078Z,16.27
2018-06-05T01:37:08.646Z,14.23
2018-06-05T01:39:37.341Z,14.37
2018-06-05T01:42:06.126Z,16.47
2018-06-05T01:44:35.078Z,16.33
2018-06-05T01:47:04.465Z,20.77
2018-06-05T01:49:38.186Z,16.80
2018-06-05T01:52:06.780Z,15.70
2018-06-05T01:54:35.542Z,15.50
2018-06-05T01:57:04.219Z,15.67
2018-06-05T01:59:32.763Z,17.40
2018-06-05T02:02:01.431Z,18.80
2018-06-05T02:04:29.974Z,18.60
2018-06-05T02:06:58.704Z,17.10
2018-06-05T02:09:27.388Z,18.27
2018-06-05T02:11:55.974Z,16.50
2018-06-05T02:14:24.587Z,17.10
2018-06-05T02:16:53.157Z,18.07
2018-06-05T02:19:23.007Z,16.50
2018-06-05T02:21:51.609Z,16.17
2018-06-05T02:24:20.206Z,19.73
2018-06-05T02:26:48.775Z,15.70
2018-06-05T02:29:17.459Z,16.40
2018-06-05T02:31:46.019Z,18.50
2018-06-05T02:34:14.230Z,20.73
2018-06-05T02:36:44.122Z,16.10
2018-06-05T02:39:13.735Z,16.10
2018-06-05T02:41:42.558Z,14.97
2018-06-05T02:44:11.092Z,15.83
2018-06-05T02:46:39.624Z,15.07
2018-06-05T02:49:08.387Z,16.73
2018-06-05T02:51:37.112Z,13.67
2018-06-05T02:54:05.912Z,14.20
2018-06-05T02:56:34.445Z,14.33
2018-06-05T02:59:03.000Z,13.70
2018-06-05T03:01:31.579Z,12.67
2018-06-05T03:04:01.175Z,17.70
2018-06-05T03:06:29.771Z,12.83
2018-06-05T03:08:58.318Z,14.90
2018-06-05T03:11:26.902Z,14.17
2018-06-05T03:13:55.473Z,14.07
2018-06-05T03:16:24.111Z,13.50
2018-06-05T03:18:52.706Z,13.63
2018-06-05T03:21:21.296Z,17.60
2018-06-05T03:23:49.880Z,13.60
2018-06-05T03:26:18.482Z,15.60
2018-06-05T03:28:47.290Z,14.73
2018-06-05T03:31:15.486Z,14.77
2018-06-05T03:33:44.090Z,13.63
2018-06-05T03:36:12.627Z,14.40
2018-06-05T03:38:41.238Z,13.60
2018-06-05T03:41:09.940Z,13.53
2018-06-05T03:43:38.524Z,11.70
2018-06-05T03:46:07.258Z,18.13
2018-06-05T03:48:36.846Z,14.37
2018-06-05T03:51:05.830Z,12.47
2018-06-05T03:53:34.427Z,14.73
2018-06-05T03:56:04.210Z,14.30
2018-06-05T03:58:32.758Z,13.93
2018-06-05T04:01:02.402Z,15.10
2018-06-05T04:03:31.054Z,13.10
2018-06-05T04:05:59.611Z,12.03
2018-06-05T04:08:28.471Z,18.20
2018-06-05T04:10:57.199Z,11.83
2018-06-05T04:13:25.770Z,14.70
2018-06-05T04:15:54.320Z,13.97
2018-06-05T04:18:23.115Z,16.00
2018-06-05T04:20:51.690Z,17.63
2018-06-05T04:23:20.795Z,13.43
2018-06-05T04:25:49.382Z,12.90
2018-06-05T04:28:17.907Z,14.13
2018-06-05T04:30:46.433Z,16.13
2018-06-05T04:33:14.999Z,13.77
2018-06-05T04:35:43.519Z,15.33
2018-06-05T04:38:12.133Z,12.90
2018-06-05T04:40:40.703Z,13.50
2018-06-05T04:43:09.268Z,14.27
2018-06-05T04:45:37.431Z,13.67
2018-06-05T04:48:05.991Z,13.90
2018-06-05T04:50:34.611Z,14.83
2018-06-05T04:53:03.136Z,14.00
2018-06-05T04:55:31.776Z,12.80
2018-06-05T04:58:00.009Z,15.53
2018-06-05T05:00:28.566Z,15.80
2018-06-05T05:02:57.139Z,13.03
2018-06-05T05:05:25.712Z,15.13
2018-06-05T05:07:54.242Z,13.07
2018-06-05T05:10:22.852Z,13.30
2018-06-05T05:12:51.434Z,15.30
2018-06-05T05:15:19.905Z,15.20
2018-06-05T05:17:48.512Z,14.67
2018-06-05T05:20:17.178Z,14.60
2018-06-05T05:22:46.450Z,13.43
2018-06-05T05:25:15.143Z,15.70
2018-06-05T05:27:43.716Z,16.00
2018-06-05T05:30:12.227Z,14.57
2018-06-05T05:32:40.422Z,14.87
2018-06-05T05:35:09.037Z,17.10
2018-06-05T05:37:37.735Z,17.10
2018-06-05T05:40:06.295Z,15.67
2018-06-05T05:42:35.496Z,14.47
2018-06-05T05:45:05.501Z,15.50
2018-06-05T05:47:34.073Z,15.80
2018-06-05T05:50:03.851Z,13.30
2018-06-05T05:52:32.400Z,14.60
2018-06-05T05:55:00.978Z,13.07
2018-06-05T05:57:29.610Z,12.13
2018-06-05T05:59:58.947Z,12.90
2018-06-05T06:02:28.268Z,11.87
2018-06-05T06:04:58.902Z,13.13
2018-06-05T06:07:28.552Z,12.10
2018-06-05T06:09:57.864Z,12.17
2018-06-05T06:12:28.226Z,11.03
2018-06-05T06:14:57.765Z,11.23
2018-06-05T06:17:27.336Z,11.13
2018-06-05T06:19:56.697Z,12.33
2018-06-05T06:22:26.001Z,11.13
2018-06-05T06:24:55.711Z,13.03
2018-06-05T06:27:25.144Z,11.50
2018-06-05T06:29:54.881Z,21.30
2018-06-05T06:32:24.255Z,22.63
2018-06-05T06:34:53.774Z,96.93
2018-06-05T06:37:23.149Z,188.27
2018-06-05T06:39:52.816Z,53.13
2018-06-05T06:42:22.408Z,34.47
2018-06-05T06:44:51.819Z,49.93
2018-06-05T06:47:21.422Z,62.37
2018-06-05T06:49:50.077Z,100.10
2018-06-05T06:52:19.975Z,126.77
2018-06-05T06:54:48.632Z,104.17
2018-06-05T06:57:17.235Z,145.20
2018-06-05T06:59:45.892Z,121.37
2018-06-05T07:02:14.440Z,143.53
2018-06-05T07:04:43.003Z,147.30
2018-06-05T07:07:11.691Z,137.97
2018-06-05T07:09:40.275Z,120.10
2018-06-05T07:12:08.990Z,119.23
2018-06-05T07:14:37.539Z,128.10
2018-06-05T07:17:06.111Z,126.67
2018-06-05T07:19:34.775Z,103.70
2018-06-05T07:22:03.333Z,111.90
2018-06-05T07:24:31.969Z,95.73
2018-06-05T07:27:00.564Z,101.40
2018-06-05T07:29:29.095Z,95.97
2018-06-05T07:31:57.759Z,87.00
2018-06-05T07:34:26.300Z,75.60
2018-06-05T07:36:54.897Z,101.07
2018-06-05T07:39:23.507Z,90.37
2018-06-05T07:41:52.107Z,86.60
2018-06-05T07:44:20.714Z,88.70
2018-06-05T07:46:49.287Z,86.27
2018-06-05T07:49:18.846Z,71.60
2018-06-05T07:51:47.390Z,69.17
2018-06-05T07:54:15.936Z,71.40
2018-06-05T07:56:44.495Z,77.67
2018-06-05T07:59:13.082Z,80.93
2018-06-05T08:01:41.622Z,80.87
2018-06-05T08:04:10.198Z,63.90
2018-06-05T08:06:38.742Z,61.33
2018-06-05T08:09:09.080Z,58.87
2018-06-05T08:11:37.921Z,55.47
2018-06-05T08:14:06.476Z,58.27
2018-06-05T08:16:36.159Z,52.87
2018-06-05T08:19:04.842Z,55.20
2018-06-05T08:21:34.447Z,54.10
2018-06-05T08:24:03.023Z,64.57
2018-06-05T08:26:51.904Z,57.00
2018-06-05T08:29:21.106Z,51.90
2018-06-05T08:31:49.686Z,51.77
2018-06-05T08:34:18.270Z,45.30
2018-06-05T08:36:46.878Z,47.33
2018-06-05T08:39:15.456Z,45.63
2018-06-05T08:41:44.051Z,42.00
2018-06-05T08:44:12.667Z,47.13
2018-06-05T08:46:41.237Z,42.27
2018-06-05T08:49:09.838Z,45.33
2018-06-05T08:51:38.487Z,41.97
2018-06-05T08:54:06.733Z,36.67
2018-06-05T08:56:36.328Z,49.07
2018-06-05T08:59:05.021Z,34.23
2018-06-05T09:01:33.681Z,42.60
2018-06-05T09:04:02.251Z,42.10
2018-06-05T09:06:30.831Z,42.10
2018-06-05T09:08:59.371Z,38.03
2018-06-05T09:11:27.934Z,35.73
2018-06-05T09:13:56.598Z,34.03
2018-06-05T09:16:25.171Z,32.50
2018-06-05T09:18:53.738Z,32.17
2018-06-05T09:21:22.320Z,30.40
2018-06-05T09:23:50.867Z,37.13
2018-06-05T09:26:19.475Z,36.10
2018-06-05T09:28:48.108Z,36.57
2018-06-05T09:31:16.685Z,30.47
2018-06-05T09:33:45.229Z,32.03
2018-06-05T09:36:13.759Z,31.17
2018-06-05T09:38:42.363Z,31.90
2018-06-05T09:41:10.628Z,24.77
2018-06-05T09:43:39.191Z,32.17
2018-06-05T09:46:07.787Z,36.93
2018-06-05T09:48:36.970Z,24.03
2018-06-05T09:51:05.608Z,26.33
2018-06-05T09:53:34.267Z,30.97
2018-06-05T09:56:02.495Z,20.37
2018-06-05T09:58:31.108Z,26.43
2018-06-05T10:00:59.651Z,29.37
2018-06-05T10:03:28.225Z,32.37
2018-06-05T10:05:56.750Z,22.70
2018-06-05T10:08:25.314Z,25.50
2018-06-05T10:10:53.833Z,29.20
2018-06-05T10:13:23.435Z,21.47
2018-06-05T10:15:51.613Z,20.60
2018-06-05T10:18:20.190Z,22.50
2018-06-05T10:20:48.374Z,28.17
2018-06-05T10:23:16.912Z,20.27
2018-06-05T10:25:45.470Z,17.20
2018-06-05T10:28:14.047Z,21.30
2018-06-05T10:30:42.610Z,27.43
2018-06-05T10:33:11.152Z,21.13
2018-06-05T10:35:39.703Z,18.30
2018-06-05T10:38:08.247Z,23.77
2018-06-05T10:40:36.794Z,18.10
2018-06-05T10:43:05.430Z,20.97
2018-06-05T10:45:34.213Z,17.33
2018-06-05T10:48:02.887Z,19.17
2018-06-05T10:50:31.482Z,18.50
2018-06-05T10:53:01.140Z,22.60
2018-06-05T10:55:29.682Z,16.97
2018-06-05T10:57:58.263Z,19.60
2018-06-05T11:00:26.849Z,18.20
2018-06-05T11:02:55.443Z,16.13
2018-06-05T11:05:24.003Z,19.83
2018-06-05T11:07:52.645Z,19.67
2018-06-05T11:10:21.228Z,16.30
2018-06-05T11:12:49.564Z,16.43
2018-06-05T11:15:18.139Z,18.03
2018-06-05T11:17:46.674Z,19.87
2018-06-05T11:20:16.251Z,14.67
2018-06-05T11:22:44.851Z,21.83
2018-06-05T11:25:13.043Z,15.40
2018-06-05T11:27:42.652Z,15.90
2018-06-05T11:30:11.211Z,24.93
2018-06-05T11:32:39.880Z,17.80
2018-06-05T11:35:08.409Z,17.53
2018-06-05T11:37:37.007Z,15.83
2018-06-05T11:40:05.629Z,15.50
2018-06-05T11:42:34.230Z,19.40
2018-06-05T11:45:02.509Z,19.70
2018-06-05T11:47:30.676Z,17.93
2018-06-05T11:49:58.934Z,16.70
2018-06-05T11:52:27.515Z,14.67
2018-06-05T11:54:56.093Z,16.37
2018-06-05T11:57:25.643Z,14.17
2018-06-05T11:59:54.196Z,14.00
2018-06-05T12:02:22.775Z,13.57
2018-06-05T12:04:51.399Z,15.43
2018-06-05T12:07:19.955Z,13.97
2018-06-05T12:09:48.158Z,15.53
2018-06-05T12:12:16.841Z,13.90
2018-06-05T12:14:45.374Z,18.27
2018-06-05T12:17:13.962Z,17.40
2018-06-05T12:19:42.511Z,14.63
2018-06-05T12:22:11.100Z,14.40
2018-06-05T12:24:39.635Z,15.23
2018-06-05T12:27:08.200Z,11.80
2018-06-05T12:29:36.828Z,14.17
2018-06-05T12:32:05.614Z,14.80
2018-06-05T12:34:34.150Z,16.07
2018-06-05T12:37:02.508Z,17.00
2018-06-05T12:39:31.043Z,15.33
2018-06-05T12:42:00.635Z,18.33
2018-06-05T12:44:29.207Z,13.30
2018-06-05T12:46:57.833Z,13.27
2018-06-05T12:49:26.418Z,11.23
2018-06-05T12:51:54.994Z,11.47
2018-06-05T12:54:23.605Z,11.43
2018-06-05T12:56:52.137Z,12.77
2018-06-05T12:59:20.744Z,12.93
2018-06-05T13:01:49.275Z,13.00
2018-06-05T13:04:17.464Z,12.07
2018-06-05T13:06:47.070Z,13.97
2018-06-05T13:09:15.656Z,13.10
2018-06-05T13:11:44.248Z,12.57
2018-06-05T13:14:12.791Z,14.27
2018-06-05T13:16:41.510Z,14.53
2018-06-05T13:19:10.094Z,12.33
2018-06-05T13:21:38.618Z,11.60
2018-06-05T13:24:07.230Z,10.83
2018-06-05T13:26:35.792Z,13.73
2018-06-05T13:29:04.398Z,12.43
2018-06-05T13:31:34.052Z,11.70
2018-06-05T13:34:02.654Z,12.10
2018-06-05T13:36:31.270Z,9.73
2018-06-05T13:38:59.812Z,12.20
2018-06-05T13:41:28.355Z,14.07
2018-06-05T13:43:56.900Z,12.50
2018-06-05T13:46:25.514Z,12.03
2018-06-05T13:48:54.085Z,12.33
2018-06-05T13:51:22.691Z,11.50
2018-06-05T13:53:52.247Z,9.60
2018-06-05T13:56:20.803Z,10.97
2018-06-05T13:58:49.343Z,12.13
2018-06-05T14:01:18.923Z,11.33
2018-06-05T14:03:47.499Z,10.10
2018-06-05T14:06:16.012Z,11.27
2018-06-05T14:08:44.575Z,10.13
2018-06-05T14:11:12.739Z,9.40
2018-06-05T14:13:42.162Z,9.30
2018-06-05T14:16:10.682Z,11.87
2018-06-05T14:18:39.207Z,9.90
2018-06-05T14:21:07.416Z,13.73
2018-06-05T14:23:35.990Z,10.33
2018-06-05T14:26:04.681Z,10.30
2018-06-05T14:28:33.238Z,10.77
2018-06-05T14:31:01.807Z,10.37
2018-06-05T14:33:30.341Z,11.03
2018-06-05T14:35:58.883Z,10.33
2018-06-05T14:38:27.419Z,10.17
2018-06-05T14:40:56.004Z,9.17
2018-06-05T14:43:24.552Z,10.23
2018-06-05T14:45:59.454Z,8.33
2018-06-05T14:48:28.027Z,8.60
2018-06-05T14:50:56.207Z,8.83
2018-06-05T14:53:24.821Z,10.63
2018-06-05T14:55:53.499Z,9.53
2018-06-05T14:58:22.044Z,10.17
2018-06-05T15:00:50.709Z,10.63
2018-06-05T15:03:19.284Z,11.33
2018-06-05T15:05:47.859Z,9.73
2018-06-05T15:08:16.495Z,11.30
2018-06-05T15:10:45.076Z,15.33
2018-06-05T15:13:13.620Z,9.03
2018-06-05T15:15:42.170Z,9.80
2018-06-05T15:18:10.726Z,9.63
2018-06-05T15:20:39.317Z,9.60
2018-06-05T15:23:08.131Z,8.30
2018-06-05T15:25:36.711Z,9.30
2018-06-05T15:28:05.277Z,9.27
2018-06-05T15:30:33.822Z,10.17
2018-06-05T15:33:02.048Z,8.90
2018-06-05T15:35:30.631Z,8.83
2018-06-05T15:37:59.185Z,12.73
2018-06-05T15:40:27.796Z,10.70
2018-06-05T15:42:56.323Z,8.10
2018-06-05T15:45:25.538Z,8.30
2018-06-05T15:47:54.107Z,8.97
2018-06-05T15:50:22.697Z,12.10
2018-06-05T15:52:51.279Z,8.00
2018-06-05T15:55:19.828Z,13.43
2018-06-05T15:57:48.420Z,9.50
2018-06-05T16:00:17.020Z,7.90
2018-06-05T16:02:45.599Z,8.53
2018-06-05T16:05:20.691Z,9.77
2018-06-05T16:07:52.092Z,8.93
2018-06-05T16:10:21.731Z,12.23
2018-06-05T16:12:50.321Z,8.93
2018-06-05T16:15:18.904Z,9.27
2018-06-05T16:17:47.569Z,7.60
2018-06-05T16:20:16.347Z,9.03
2018-06-05T16:22:45.048Z,7.50
2018-06-05T16:25:13.627Z,9.20
2018-06-05T16:27:42.216Z,11.30
2018-06-05T16:30:10.882Z,8.50
2018-06-05T16:32:39.579Z,9.10
2018-06-05T16:35:08.118Z,7.27
2018-06-05T16:37:36.339Z,7.10
2018-06-05T16:40:05.028Z,8.10
2018-06-05T16:42:33.693Z,9.10
2018-06-05T16:45:02.313Z,8.37
2018-06-05T16:47:30.887Z,8.20
2018-06-05T16:49:59.535Z,7.40
2018-06-05T16:52:28.141Z,9.47
2018-06-05T16:54:56.775Z,7.57
2018-06-05T16:57:25.332Z,9.40
2018-06-05T16:59:53.927Z,8.50
2018-06-05T17:02:22.451Z,9.03
2018-06-05T17:04:52.118Z,8.47
2018-06-05T17:07:20.695Z,6.83
2018-06-05T17:09:49.242Z,8.00
2018-06-05T17:12:17.880Z,10.90
2018-06-05T17:14:46.491Z,7.80
2018-06-05T17:17:16.196Z,7.43
2018-06-05T17:19:44.879Z,8.00
2018-06-05T17:22:13.575Z,7.70
2018-06-05T17:24:42.149Z,9.37
2018-06-05T17:27:10.817Z,7.90
2018-06-05T17:29:39.359Z,8.73
2018-06-05T17:32:07.940Z,7.63
2018-06-05T17:34:36.570Z,7.53
2018-06-05T17:37:05.151Z,8.57
2018-06-05T17:39:33.752Z,10.20
2018-06-05T17:42:02.336Z,7.50
2018-06-05T17:44:31.002Z,7.47
2018-06-05T17:47:00.604Z,7.50
2018-06-05T17:49:29.218Z,8.80
2018-06-05T17:51:57.804Z,7.43
2018-06-05T17:54:27.433Z,8.03
2018-06-05T17:56:55.975Z,9.07
2018-06-05T17:59:24.575Z,9.73
2018-06-05T18:01:53.117Z,5.83
2018-06-05T18:04:21.670Z,7.17
2018-06-05T18:06:50.271Z,8.17
2018-06-05T18:09:18.483Z,8.33
2018-06-05T18:11:47.060Z,6.97
2018-06-05T18:14:15.642Z,6.93
2018-06-05T18:16:44.176Z,7.27
2018-06-05T18:19:12.771Z,7.23
2018-06-05T18:21:40.975Z,6.90
2018-06-05T18:24:10.756Z,7.87
2018-06-05T18:26:39.345Z,6.00
2018-06-05T18:29:08.938Z,8.33
2018-06-05T18:31:37.174Z,7.63
2018-06-05T18:34:05.745Z,6.83
2018-06-05T18:36:34.378Z,6.77
2018-06-05T18:39:03.100Z,6.57
2018-06-05T18:41:32.706Z,8.43
2018-06-05T18:44:01.252Z,7.47
2018-06-05T18:46:29.482Z,7.43
2018-06-05T18:48:58.211Z,6.60
2018-06-05T18:51:26.796Z,6.93
2018-06-05T18:53:55.516Z,6.07
2018-06-05T18:56:25.142Z,6.63
2018-06-05T18:58:55.074Z,7.70
2018-06-05T19:01:24.604Z,9.10
2018-06-05T19:03:54.282Z,9.33
2018-06-05T19:06:23.485Z,8.57
2018-06-05T19:08:52.069Z,7.13
2018-06-05T19:11:21.699Z,6.67
2018-06-05T19:13:51.267Z,6.77
2018-06-05T19:16:19.853Z,7.20
2018-06-05T19:18:48.406Z,6.33
2018-06-05T19:21:16.991Z,6.73
2018-06-05T19:23:45.581Z,9.63
2018-06-05T19:26:14.150Z,6.47
2018-06-05T19:28:42.755Z,6.70
2018-06-05T19:31:11.328Z,6.10
2018-06-05T19:33:40.924Z,7.27
2018-06-05T19:36:10.497Z,7.47
2018-06-05T19:38:39.219Z,7.47
2018-06-05T19:41:07.843Z,7.80
2018-06-05T19:43:36.383Z,7.57
2018-06-05T19:46:04.963Z,8.40
2018-06-05T19:48:35.869Z,6.00
2018-06-05T19:51:05.446Z,6.87
2018-06-05T19:53:34.058Z,7.73
2018-06-05T19:56:02.712Z,9.47
2018-06-05T19:58:30.910Z,7.73
2018-06-05T20:00:59.487Z,6.83
2018-06-05T20:03:28.048Z,7.77
2018-06-05T20:05:56.611Z,7.27
2018-06-05T20:08:26.231Z,6.47
2018-06-05T20:10:54.875Z,9.93
2018-06-05T20:13:23.588Z,6.27
2018-06-05T20:15:52.170Z,9.43
2018-06-05T20:18:20.754Z,9.27
2018-06-05T20:20:49.371Z,6.80
2018-06-05T20:23:17.879Z,7.80
2018-06-05T20:25:46.552Z,10.13
2018-06-05T20:28:15.104Z,7.23
2018-06-05T20:30:43.850Z,6.93
2018-06-05T20:33:12.534Z,12.00
2018-06-05T20:35:41.167Z,10.33
2018-06-05T20:38:09.753Z,6.23
2018-06-05T20:40:38.934Z,5.50
2018-06-05T20:43:07.516Z,6.63
2018-06-05T20:45:37.078Z,6.03
2018-06-05T20:48:05.852Z,6.40
2018-06-05T20:50:34.453Z,6.50
2018-06-05T20:53:03.054Z,8.03
2018-06-05T20:55:31.591Z,8.30
2018-06-05T20:58:00.499Z,6.83
2018-06-05T21:00:30.184Z,6.50
2018-06-05T21:02:58.709Z,6.90
2018-06-05T21:05:27.304Z,6.47
2018-06-05T21:07:55.888Z,6.53
2018-06-05T21:10:24.590Z,5.53
2018-06-05T21:12:53.154Z,6.33
2018-06-05T21:15:21.764Z,5.97
2018-06-05T21:17:50.401Z,6.37
2018-06-05T21:20:18.974Z,8.57
2018-06-05T21:22:47.534Z,6.37
2018-06-05T21:25:17.083Z,7.93
2018-06-05T21:27:45.668Z,6.77
2018-06-05T21:30:14.379Z,6.53
2018-06-05T21:32:42.928Z,6.73
2018-06-05T21:35:11.556Z,6.03
2018-06-05T21:37:40.129Z,5.60
2018-06-05T21:40:08.688Z,6.63
2018-06-05T21:42:37.254Z,6.07
2018-06-05T21:45:06.125Z,5.10
2018-06-05T21:47:34.663Z,6.57
2018-06-05T21:50:02.895Z,8.83
2018-06-05T21:52:31.554Z,6.90
2018-06-05T21:55:00.108Z,6.10
2018-06-05T21:57:28.700Z,5.80
2018-06-05T21:59:57.737Z,6.10
2018-06-05T22:02:27.250Z,6.03
2018-06-05T22:04:56.245Z,6.30
2018-06-05T22:07:25.727Z,6.77
2018-06-05T22:09:55.655Z,6.33
2018-06-05T22:12:24.411Z,5.50
2018-06-05T22:14:53.207Z,5.87
2018-06-05T22:17:21.831Z,7.33
2018-06-05T22:19:50.735Z,6.80
2018-06-05T22:22:19.986Z,5.90
2018-06-05T22:24:49.351Z,6.00
2018-06-05T22:27:19.044Z,6.53
2018-06-05T22:29:48.866Z,6.87
2018-06-05T22:32:18.633Z,5.50
2018-06-05T22:34:47.602Z,6.67
2018-06-05T22:37:17.156Z,5.83
2018-06-05T22:39:45.748Z,5.70
2018-06-05T22:42:16.380Z,5.87
2018-06-05T22:44:45.232Z,6.77
2018-06-05T22:47:14.890Z,6.10
2018-06-05T22:49:44.307Z,6.20
2018-06-05T22:52:13.914Z,6.20
2018-06-05T22:54:43.515Z,8.03
2018-06-05T22:57:12.071Z,9.03
2018-06-05T22:59:40.619Z,8.80
2018-06-05T23:02:09.367Z,9.53
2018-06-05T23:04:37.956Z,10.93
2018-06-05T23:07:07.619Z,10.70
2018-06-05T23:09:37.287Z,13.70
2018-06-05T23:12:05.863Z,11.17
2018-06-05T23:14:34.419Z,11.50
2018-06-05T23:17:02.958Z,12.10
2018-06-05T23:19:32.500Z,16.23
2018-06-05T23:22:01.034Z,12.37
2018-06-05T23:24:29.623Z,11.93
2018-06-05T23:26:58.156Z,10.83
2018-06-05T23:29:27.776Z,15.70
2018-06-05T23:31:56.386Z,13.13
2018-06-05T23:34:24.967Z,18.90
2018-06-05T23:36:53.627Z,19.67
2018-06-05T23:39:22.155Z,16.83
2018-06-05T23:41:50.738Z,20.40
2018-06-05T23:44:19.252Z,17.80
2018-06-05T23:46:47.812Z,18.40
2018-06-05T23:49:16.378Z,20.20
2018-06-05T23:51:44.923Z,23.10
2018-06-05T23:54:13.528Z,25.93
2018-06-05T23:56:42.051Z,24.63
2018-06-05T23:59:10.622Z,29.33
